sensor_id;sensor_type;location;lat;lon;timestamp;pressure;altitude;pressure_sealevel;temperature;humidity
49044;BME280;34860;48.066;14.124;2023-02-10T00:01:13;98276.78;;;-1.35;70.29
49044;BME280;34860;48.066;14.124;2023-02-10T00:04:03;98276.16;;;-1.32;70.24
49044;BME280;34860;48.066;14.124;2023-02-10T00:06:51;98277.09;;;-1.28;70.29
49044;BME280;34860;48.066;14.124;2023-02-10T00:09:39;98275.03;;;-1.22;70.11
49044;BME280;34860;48.066;14.124;2023-02-10T00:12:27;98264.59;;;-1.20;70.20
49044;BME280;34860;48.066;14.124;2023-02-10T00:15:15;98271.34;;;-1.18;70.05
49044;BME280;34860;48.066;14.124;2023-02-10T00:18:05;98281.63;;;-1.15;70.21
49044;BME280;34860;48.066;14.124;2023-02-10T00:20:53;98276.66;;;-1.13;70.12
49044;BME280;34860;48.066;14.124;2023-02-10T00:23:41;98288.84;;;-1.10;70.04
49044;BME280;34860;48.066;14.124;2023-02-10T00:26:30;98295.25;;;-1.06;69.95
49044;BME280;34860;48.066;14.124;2023-02-10T00:29:18;98294.16;;;-1.05;70.29
49044;BME280;34860;48.066;14.124;2023-02-10T00:32:06;98304.75;;;-1.03;70.10
49044;BME280;34860;48.066;14.124;2023-02-10T00:34:55;98310.19;;;-1.03;69.96
49044;BME280;34860;48.066;14.124;2023-02-10T00:37:44;98302.97;;;-1.08;70.16
49044;BME280;34860;48.066;14.124;2023-02-10T00:40:32;98311.78;;;-1.11;70.19
49044;BME280;34860;48.066;14.124;2023-02-10T00:43:20;98313.06;;;-1.17;70.17
49044;BME280;34860;48.066;14.124;2023-02-10T00:46:08;98313.53;;;-1.24;70.23
49044;BME280;34860;48.066;14.124;2023-02-10T00:48:56;98327.34;;;-1.29;70.16
49044;BME280;34860;48.066;14.124;2023-02-10T00:51:48;98327.16;;;-1.41;70.32
49044;BME280;34860;48.066;14.124;2023-02-10T00:54:37;98329.81;;;-1.50;70.41
49044;BME280;34860;48.066;14.124;2023-02-10T00:57:26;98332.53;;;-1.59;70.21
49044;BME280;34860;48.066;14.124;2023-02-10T01:00:15;98324.00;;;-1.66;70.49
49044;BME280;34860;48.066;14.124;2023-02-10T01:03:04;98304.28;;;-1.63;70.54
49044;BME280;34860;48.066;14.124;2023-02-10T01:05:52;98310.72;;;-1.59;70.38
49044;BME280;34860;48.066;14.124;2023-02-10T01:08:42;98316.34;;;-1.55;70.48
49044;BME280;34860;48.066;14.124;2023-02-10T01:11:31;98304.03;;;-1.53;70.37
49044;BME280;34860;48.066;14.124;2023-02-10T01:14:19;98288.63;;;-1.49;70.20
49044;BME280;34860;48.066;14.124;2023-02-10T01:17:07;98296.66;;;-1.43;70.11
49044;BME280;34860;48.066;14.124;2023-02-10T01:19:55;98303.06;;;-1.39;70.14
49044;BME280;34860;48.066;14.124;2023-02-10T01:22:43;98309.19;;;-1.34;70.09
49044;BME280;34860;48.066;14.124;2023-02-10T01:25:33;98310.47;;;-1.31;70.02
49044;BME280;34860;48.066;14.124;2023-02-10T01:28:21;98320.25;;;-1.30;70.05
49044;BME280;34860;48.066;14.124;2023-02-10T01:31:11;98320.75;;;-1.28;70.02
49044;BME280;34860;48.066;14.124;2023-02-10T01:34:00;98312.56;;;-1.28;69.98
49044;BME280;34860;48.066;14.124;2023-02-10T01:36:48;98318.53;;;-1.26;70.12
49044;BME280;34860;48.066;14.124;2023-02-10T01:39:36;98313.88;;;-1.25;70.02
49044;BME280;34860;48.066;14.124;2023-02-10T01:42:25;98319.31;;;-1.25;70.02
49044;BME280;34860;48.066;14.124;2023-02-10T01:45:17;98313.53;;;-1.24;69.99
49044;BME280;34860;48.066;14.124;2023-02-10T01:48:06;98322.84;;;-1.25;70.24
49044;BME280;34860;48.066;14.124;2023-02-10T01:51:00;98327.81;;;-1.27;70.16
49044;BME280;34860;48.066;14.124;2023-02-10T01:53:49;98323.47;;;-1.28;70.05
49044;BME280;34860;48.066;14.124;2023-02-10T01:56:37;98324.28;;;-1.27;70.04
49044;BME280;34860;48.066;14.124;2023-02-10T01:59:30;98330.84;;;-1.29;70.07
49044;BME280;34860;48.066;14.124;2023-02-10T02:02:23;98327.97;;;-1.32;70.05
49044;BME280;34860;48.066;14.124;2023-02-10T02:05:20;98336.78;;;-1.35;70.28
49044;BME280;34860;48.066;14.124;2023-02-10T02:08:13;98329.88;;;-1.41;70.22
49044;BME280;34860;48.066;14.124;2023-02-10T02:11:14;98329.72;;;-1.45;70.33
49044;BME280;34860;48.066;14.124;2023-02-10T02:14:17;98327.41;;;-1.52;70.45
49044;BME280;34860;48.066;14.124;2023-02-10T02:17:14;98328.19;;;-1.60;70.46
49044;BME280;34860;48.066;14.124;2023-02-10T02:23:44;98329.59;;;-1.80;70.43
49044;BME280;34860;48.066;14.124;2023-02-10T02:26:58;98328.91;;;-1.86;70.55
49044;BME280;34860;48.066;14.124;2023-02-10T02:30:20;98346.38;;;-1.87;70.48
49044;BME280;34860;48.066;14.124;2023-02-10T02:33:18;98338.22;;;-1.87;70.48
49044;BME280;34860;48.066;14.124;2023-02-10T02:36:09;98343.16;;;-1.89;70.58
49044;BME280;34860;48.066;14.124;2023-02-10T02:39:00;98349.44;;;-1.88;70.40
49044;BME280;34860;48.066;14.124;2023-02-10T02:42:00;98349.44;;;-1.88;70.35
49044;BME280;34860;48.066;14.124;2023-02-10T02:44:57;98353.72;;;-1.96;70.43
49044;BME280;34860;48.066;14.124;2023-02-10T02:47:59;98361.69;;;-1.99;70.37
49044;BME280;34860;48.066;14.124;2023-02-10T02:50:59;98364.53;;;-2.05;70.52
49044;BME280;34860;48.066;14.124;2023-02-10T02:53:58;98357.31;;;-2.09;70.52
49044;BME280;34860;48.066;14.124;2023-02-10T02:56:52;98362.41;;;-2.16;70.49
49044;BME280;34860;48.066;14.124;2023-02-10T02:59:47;98355.97;;;-2.21;70.49
49044;BME280;34860;48.066;14.124;2023-02-10T03:02:39;98367.28;;;-2.27;70.55
49044;BME280;34860;48.066;14.124;2023-02-10T03:05:31;98367.59;;;-2.29;70.58
49044;BME280;34860;48.066;14.124;2023-02-10T03:08:20;98373.66;;;-2.32;70.66
49044;BME280;34860;48.066;14.124;2023-02-10T03:11:08;98383.91;;;-2.38;70.45
49044;BME280;34860;48.066;14.124;2023-02-10T03:13:57;98390.25;;;-2.42;70.62
49044;BME280;34860;48.066;14.124;2023-02-10T03:16:45;98390.56;;;-2.44;70.60
49044;BME280;34860;48.066;14.124;2023-02-10T03:19:33;98387.97;;;-2.49;70.67
49044;BME280;34860;48.066;14.124;2023-02-10T03:22:22;98382.16;;;-2.56;70.59
49044;BME280;34860;48.066;14.124;2023-02-10T03:25:11;98384.25;;;-2.53;70.63
49044;BME280;34860;48.066;14.124;2023-02-10T03:27:59;98377.56;;;-2.47;70.49
49044;BME280;34860;48.066;14.124;2023-02-10T03:30:47;98380.34;;;-2.38;70.38
49044;BME280;34860;48.066;14.124;2023-02-10T03:33:37;98379.13;;;-2.32;70.33
49044;BME280;34860;48.066;14.124;2023-02-10T03:36:25;98386.84;;;-2.25;70.20
49044;BME280;34860;48.066;14.124;2023-02-10T03:39:13;98390.56;;;-2.21;70.18
49044;BME280;34860;48.066;14.124;2023-02-10T03:42:02;98390.75;;;-2.17;70.11
49044;BME280;34860;48.066;14.124;2023-02-10T03:44:50;98387.09;;;-2.13;70.19
49044;BME280;34860;48.066;14.124;2023-02-10T03:47:38;98383.94;;;-2.06;70.02
49044;BME280;34860;48.066;14.124;2023-02-10T03:50:26;98382.50;;;-2.04;70.04
49044;BME280;34860;48.066;14.124;2023-02-10T03:53:14;98386.19;;;-1.99;69.94
49044;BME280;34860;48.066;14.124;2023-02-10T03:56:03;98389.13;;;-1.96;70.04
49044;BME280;34860;48.066;14.124;2023-02-10T03:58:52;98383.69;;;-1.96;70.13
49044;BME280;34860;48.066;14.124;2023-02-10T04:01:40;98393.44;;;-1.95;69.98
49044;BME280;34860;48.066;14.124;2023-02-10T04:04:29;98387.19;;;-1.95;70.00
49044;BME280;34860;48.066;14.124;2023-02-10T04:07:17;98398.28;;;-1.92;70.22
49044;BME280;34860;48.066;14.124;2023-02-10T04:10:05;98399.28;;;-1.88;70.08
49044;BME280;34860;48.066;14.124;2023-02-10T04:12:54;98403.63;;;-1.87;70.07
49044;BME280;34860;48.066;14.124;2023-02-10T04:15:43;98396.22;;;-1.86;70.07
49044;BME280;34860;48.066;14.124;2023-02-10T04:18:31;98398.03;;;-1.81;70.09
49044;BME280;34860;48.066;14.124;2023-02-10T04:21:21;98397.09;;;-1.77;70.22
49044;BME280;34860;48.066;14.124;2023-02-10T04:24:11;98395.84;;;-1.71;70.03
49044;BME280;34860;48.066;14.124;2023-02-10T04:26:59;98398.75;;;-1.67;70.06
49044;BME280;34860;48.066;14.124;2023-02-10T04:29:47;98398.13;;;-1.64;69.94
49044;BME280;34860;48.066;14.124;2023-02-10T04:32:36;98392.34;;;-1.62;69.99
49044;BME280;34860;48.066;14.124;2023-02-10T04:35:24;98393.16;;;-1.62;70.10
49044;BME280;34860;48.066;14.124;2023-02-10T04:38:12;98399.38;;;-1.61;69.91
49044;BME280;34860;48.066;14.124;2023-02-10T04:41:00;98389.63;;;-1.62;69.96
49044;BME280;34860;48.066;14.124;2023-02-10T04:43:49;98399.69;;;-1.63;70.01
49044;BME280;34860;48.066;14.124;2023-02-10T04:46:37;98399.22;;;-1.65;70.02
49044;BME280;34860;48.066;14.124;2023-02-10T04:49:27;98400.84;;;-1.64;70.16
49044;BME280;34860;48.066;14.124;2023-02-10T04:52:15;98403.56;;;-1.64;70.09
49044;BME280;34860;48.066;14.124;2023-02-10T04:55:03;98398.91;;;-1.63;69.84
49044;BME280;34860;48.066;14.124;2023-02-10T04:57:51;98407.88;;;-1.63;70.17
49044;BME280;34860;48.066;14.124;2023-02-10T05:00:39;98407.09;;;-1.63;70.15
49044;BME280;34860;48.066;14.124;2023-02-10T05:03:28;98416.38;;;-1.65;70.08
49044;BME280;34860;48.066;14.124;2023-02-10T05:06:17;98408.19;;;-1.65;70.26
49044;BME280;34860;48.066;14.124;2023-02-10T05:09:05;98419.59;;;-1.62;70.07
49044;BME280;34860;48.066;14.124;2023-02-10T05:11:53;98423.91;;;-1.61;70.05
49044;BME280;34860;48.066;14.124;2023-02-10T05:14:41;98422.34;;;-1.62;70.04
49044;BME280;34860;48.066;14.124;2023-02-10T05:17:29;98426.16;;;-1.63;70.24
49044;BME280;34860;48.066;14.124;2023-02-10T05:20:18;98416.06;;;-1.63;70.10
49044;BME280;34860;48.066;14.124;2023-02-10T05:23:07;98425.06;;;-1.62;70.18
49044;BME280;34860;48.066;14.124;2023-02-10T05:25:55;98424.44;;;-1.59;70.09
49044;BME280;34860;48.066;14.124;2023-02-10T05:28:43;98423.31;;;-1.58;70.05
49044;BME280;34860;48.066;14.124;2023-02-10T05:31:32;98427.34;;;-1.56;70.09
49044;BME280;34860;48.066;14.124;2023-02-10T05:34:20;98431.53;;;-1.50;70.02
49044;BME280;34860;48.066;14.124;2023-02-10T05:37:08;98432.66;;;-1.51;69.96
49044;BME280;34860;48.066;14.124;2023-02-10T05:39:57;98445.28;;;-1.55;70.05
49044;BME280;34860;48.066;14.124;2023-02-10T05:42:45;98446.41;;;-1.56;70.11
49044;BME280;34860;48.066;14.124;2023-02-10T05:45:33;98455.41;;;-1.55;70.10
49044;BME280;34860;48.066;14.124;2023-02-10T05:48:21;98456.84;;;-1.58;70.09
49044;BME280;34860;48.066;14.124;2023-02-10T05:51:09;98456.00;;;-1.58;70.15
49044;BME280;34860;48.066;14.124;2023-02-10T05:53:57;98453.59;;;-1.60;70.15
49044;BME280;34860;48.066;14.124;2023-02-10T05:56:48;98459.69;;;-1.63;70.12
49044;BME280;34860;48.066;14.124;2023-02-10T05:59:37;98462.09;;;-1.61;70.15
49044;BME280;34860;48.066;14.124;2023-02-10T06:02:25;98467.22;;;-1.60;70.14
49044;BME280;34860;48.066;14.124;2023-02-10T06:05:14;98468.84;;;-1.59;70.16
49044;BME280;34860;48.066;14.124;2023-02-10T06:08:02;98475.63;;;-1.56;70.01
49044;BME280;34860;48.066;14.124;2023-02-10T06:10:50;98482.81;;;-1.52;70.12
49044;BME280;34860;48.066;14.124;2023-02-10T06:13:39;98481.28;;;-1.44;70.16
49044;BME280;34860;48.066;14.124;2023-02-10T06:16:28;98489.97;;;-1.42;70.06
49044;BME280;34860;48.066;14.124;2023-02-10T06:19:16;98488.34;;;-1.43;70.10
49044;BME280;34860;48.066;14.124;2023-02-10T06:22:07;98487.41;;;-1.38;70.14
49044;BME280;34860;48.066;14.124;2023-02-10T06:24:55;98497.88;;;-1.32;69.97
49044;BME280;34860;48.066;14.124;2023-02-10T06:27:44;98499.50;;;-1.31;70.04
49044;BME280;34860;48.066;14.124;2023-02-10T06:30:33;98511.97;;;-1.30;70.04
49044;BME280;34860;48.066;14.124;2023-02-10T06:33:21;98504.25;;;-1.36;70.04
49044;BME280;34860;48.066;14.124;2023-02-10T06:36:10;98517.72;;;-1.40;70.14
49044;BME280;34860;48.066;14.124;2023-02-10T06:38:58;98525.41;;;-1.42;70.27
49044;BME280;34860;48.066;14.124;2023-02-10T06:41:46;98537.13;;;-1.41;70.19
49044;BME280;34860;48.066;14.124;2023-02-10T06:44:34;98548.97;;;-1.46;70.25
49044;BME280;34860;48.066;14.124;2023-02-10T06:47:26;98545.84;;;-1.53;70.36
49044;BME280;34860;48.066;14.124;2023-02-10T06:50:15;98546.69;;;-1.53;70.37
49044;BME280;34860;48.066;14.124;2023-02-10T06:53:04;98547.78;;;-1.54;70.41
49044;BME280;34860;48.066;14.124;2023-02-10T06:55:55;98559.91;;;-1.60;70.39
49044;BME280;34860;48.066;14.124;2023-02-10T06:58:43;98570.78;;;-1.69;70.46
49044;BME280;34860;48.066;14.124;2023-02-10T07:01:31;98571.81;;;-1.78;70.57
49044;BME280;34860;48.066;14.124;2023-02-10T07:04:20;98582.50;;;-1.82;70.59
49044;BME280;34860;48.066;14.124;2023-02-10T07:07:08;98585.84;;;-1.85;70.59
49044;BME280;34860;48.066;14.124;2023-02-10T07:09:56;98581.66;;;-1.91;70.57
49044;BME280;34860;48.066;14.124;2023-02-10T07:12:45;98581.44;;;-1.95;70.81
49044;BME280;34860;48.066;14.124;2023-02-10T07:15:34;98580.97;;;-1.97;70.59
49044;BME280;34860;48.066;14.124;2023-02-10T07:18:22;98578.84;;;-2.00;70.69
49044;BME280;34860;48.066;14.124;2023-02-10T07:21:12;98584.47;;;-1.96;70.70
49044;BME280;34860;48.066;14.124;2023-02-10T07:24:00;98584.69;;;-1.93;70.52
49044;BME280;34860;48.066;14.124;2023-02-10T07:26:48;98591.25;;;-1.94;70.56
49044;BME280;34860;48.066;14.124;2023-02-10T07:29:36;98581.44;;;-1.95;70.48
49044;BME280;34860;48.066;14.124;2023-02-10T07:32:24;98592.88;;;-1.93;70.59
49044;BME280;34860;48.066;14.124;2023-02-10T07:35:12;98594.66;;;-1.88;70.36
49044;BME280;34860;48.066;14.124;2023-02-10T07:38:02;98594.38;;;-1.87;70.39
49044;BME280;34860;48.066;14.124;2023-02-10T07:40:50;98605.44;;;-1.83;70.41
49044;BME280;34860;48.066;14.124;2023-02-10T07:43:38;98600.19;;;-1.79;70.36
49044;BME280;34860;48.066;14.124;2023-02-10T07:46:34;98595.22;;;-1.77;70.23
49044;BME280;34860;48.066;14.124;2023-02-10T07:49:22;98597.84;;;-1.72;70.33
49044;BME280;34860;48.066;14.124;2023-02-10T07:52:09;98595.19;;;-1.63;70.25
49044;BME280;34860;48.066;14.124;2023-02-10T07:54:58;98590.16;;;-1.48;70.24
49044;BME280;34860;48.066;14.124;2023-02-10T07:57:48;98603.44;;;-1.32;69.96
49044;BME280;34860;48.066;14.124;2023-02-10T08:00:35;98605.16;;;-1.14;69.93
49044;BME280;34860;48.066;14.124;2023-02-10T08:03:22;98603.97;;;-0.99;69.75
49044;BME280;34860;48.066;14.124;2023-02-10T08:06:10;98601.00;;;-0.80;69.75
49044;BME280;34860;48.066;14.124;2023-02-10T08:08:58;98606.03;;;-0.73;69.56
49044;BME280;34860;48.066;14.124;2023-02-10T08:11:47;98614.22;;;-0.73;69.65
49044;BME280;34860;48.066;14.124;2023-02-10T08:14:35;98624.31;;;-0.74;69.75
49044;BME280;34860;48.066;14.124;2023-02-10T08:17:23;98635.22;;;-0.74;69.77
49044;BME280;34860;48.066;14.124;2023-02-10T08:20:11;98635.84;;;-0.77;69.99
49044;BME280;34860;48.066;14.124;2023-02-10T08:22:59;98639.84;;;-0.83;70.00
49044;BME280;34860;48.066;14.124;2023-02-10T08:25:47;98630.22;;;-0.80;70.16
49044;BME280;34860;48.066;14.124;2023-02-10T08:28:38;98626.22;;;-0.74;70.04
49044;BME280;34860;48.066;14.124;2023-02-10T08:31:27;98620.91;;;-0.48;70.04
49044;BME280;34860;48.066;14.124;2023-02-10T08:34:16;98620.66;;;-0.20;69.83
49044;BME280;34860;48.066;14.124;2023-02-10T08:37:04;98627.94;;;0.02;69.61
49044;BME280;34860;48.066;14.124;2023-02-10T08:39:52;98636.19;;;0.20;69.42
49044;BME280;34860;48.066;14.124;2023-02-10T08:42:40;98638.63;;;0.39;69.21
49044;BME280;34860;48.066;14.124;2023-02-10T08:45:30;98636.03;;;0.51;69.18
49044;BME280;34860;48.066;14.124;2023-02-10T08:48:18;98639.72;;;0.64;69.01
49044;BME280;34860;48.066;14.124;2023-02-10T08:51:07;98644.41;;;0.72;69.10
49044;BME280;34860;48.066;14.124;2023-02-10T08:53:56;98641.50;;;0.77;69.07
49044;BME280;34860;48.066;14.124;2023-02-10T08:56:44;98642.44;;;0.90;69.29
49044;BME280;34860;48.066;14.124;2023-02-10T08:59:33;98646.59;;;1.05;69.41
49044;BME280;34860;48.066;14.124;2023-02-10T09:02:22;98644.34;;;1.16;69.61
49044;BME280;34860;48.066;14.124;2023-02-10T09:05:10;98657.06;;;1.20;69.47
49044;BME280;34860;48.066;14.124;2023-02-10T09:07:58;98661.09;;;1.23;69.69
49044;BME280;34860;48.066;14.124;2023-02-10T09:10:46;98663.16;;;1.26;69.64
49044;BME280;34860;48.066;14.124;2023-02-10T09:13:35;98669.59;;;1.30;69.82
49044;BME280;34860;48.066;14.124;2023-02-10T09:16:24;98668.75;;;1.38;69.57
49044;BME280;34860;48.066;14.124;2023-02-10T09:19:13;98668.75;;;1.38;69.42
49044;BME280;34860;48.066;14.124;2023-02-10T09:22:02;98663.75;;;1.40;69.54
49044;BME280;34860;48.066;14.124;2023-02-10T09:24:50;98666.84;;;1.39;69.53
49044;BME280;34860;48.066;14.124;2023-02-10T09:27:38;98666.34;;;1.37;69.57
49044;BME280;34860;48.066;14.124;2023-02-10T09:30:27;98658.13;;;1.45;69.61
49044;BME280;34860;48.066;14.124;2023-02-10T09:33:16;98656.00;;;1.51;69.63
49044;BME280;34860;48.066;14.124;2023-02-10T09:36:06;98653.22;;;1.60;69.47
49044;BME280;34860;48.066;14.124;2023-02-10T09:38:55;98657.53;;;1.70;69.31
49044;BME280;34860;48.066;14.124;2023-02-10T09:41:50;98656.38;;;1.79;69.30
49044;BME280;34860;48.066;14.124;2023-02-10T09:44:46;98655.38;;;1.84;69.28
49044;BME280;34860;48.066;14.124;2023-02-10T09:47:43;98650.69;;;1.85;69.25
49044;BME280;34860;48.066;14.124;2023-02-10T09:50:44;98658.38;;;1.91;69.29
49044;BME280;34860;48.066;14.124;2023-02-10T09:53:36;98658.50;;;2.04;69.17
49044;BME280;34860;48.066;14.124;2023-02-10T09:56:25;98660.72;;;2.10;69.21
49044;BME280;34860;48.066;14.124;2023-02-10T09:59:17;98664.75;;;2.13;69.19
49044;BME280;34860;48.066;14.124;2023-02-10T10:02:13;98666.81;;;2.16;69.12
49044;BME280;34860;48.066;14.124;2023-02-10T10:05:15;98661.13;;;2.21;69.23
49044;BME280;34860;48.066;14.124;2023-02-10T10:08:11;98661.44;;;2.28;69.21
49044;BME280;34860;48.066;14.124;2023-02-10T10:11:05;98668.59;;;2.42;69.17
49044;BME280;34860;48.066;14.124;2023-02-10T10:13:57;98674.84;;;2.51;69.07
49044;BME280;34860;48.066;14.124;2023-02-10T10:16:58;98682.84;;;2.56;69.07
49044;BME280;34860;48.066;14.124;2023-02-10T10:19:58;98682.53;;;2.58;69.26
49044;BME280;34860;48.066;14.124;2023-02-10T10:22:56;98677.03;;;2.58;69.24
49044;BME280;34860;48.066;14.124;2023-02-10T10:25:57;98672.53;;;2.74;69.43
49044;BME280;34860;48.066;14.124;2023-02-10T10:29:01;98665.25;;;2.78;69.25
49044;BME280;34860;48.066;14.124;2023-02-10T10:31:58;98665.72;;;2.80;69.67
49044;BME280;34860;48.066;14.124;2023-02-10T10:34:55;98674.41;;;3.03;69.72
49044;BME280;34860;48.066;14.124;2023-02-10T10:37:44;98673.59;;;3.36;69.52
49044;BME280;34860;48.066;14.124;2023-02-10T10:40:34;98672.03;;;3.60;69.34
49044;BME280;34860;48.066;14.124;2023-02-10T10:43:26;98672.97;;;3.89;69.16
49044;BME280;34860;48.066;14.124;2023-02-10T10:46:21;98664.28;;;3.99;69.15
49044;BME280;34860;48.066;14.124;2023-02-10T10:49:11;98655.91;;;4.08;69.31
49044;BME280;34860;48.066;14.124;2023-02-10T10:51:59;98654.97;;;4.28;69.03
49044;BME280;34860;48.066;14.124;2023-02-10T10:54:47;98644.31;;;4.14;69.07
49044;BME280;34860;48.066;14.124;2023-02-10T10:57:35;98630.94;;;3.88;69.58
49044;BME280;34860;48.066;14.124;2023-02-10T11:00:26;98629.44;;;3.78;69.71
49044;BME280;34860;48.066;14.124;2023-02-10T11:03:17;98621.19;;;3.78;69.98
49044;BME280;34860;48.066;14.124;2023-02-10T11:06:08;98626.91;;;3.86;69.96
49044;BME280;34860;48.066;14.124;2023-02-10T11:08:58;98632.84;;;3.88;69.76
49044;BME280;34860;48.066;14.124;2023-02-10T11:11:49;98624.75;;;3.91;69.75
49044;BME280;34860;48.066;14.124;2023-02-10T11:14:39;98627.59;;;4.07;69.55
49044;BME280;34860;48.066;14.124;2023-02-10T11:17:33;98627.03;;;4.02;69.44
49044;BME280;34860;48.066;14.124;2023-02-10T11:20:26;98618.53;;;4.07;69.77
49044;BME280;34860;48.066;14.124;2023-02-10T11:23:16;98617.72;;;4.18;69.87
49044;BME280;34860;48.066;14.124;2023-02-10T11:26:06;98609.22;;;4.24;69.82
49044;BME280;34860;48.066;14.124;2023-02-10T11:29:08;98600.88;;;4.08;69.82
49044;BME280;34860;48.066;14.124;2023-02-10T11:31:58;98598.72;;;3.89;69.88
49044;BME280;34860;48.066;14.124;2023-02-10T11:34:48;98595.75;;;3.69;70.03
49044;BME280;34860;48.066;14.124;2023-02-10T11:37:39;98580.19;;;3.61;70.18
49044;BME280;34860;48.066;14.124;2023-02-10T11:40:31;98565.50;;;3.57;70.07
49044;BME280;34860;48.066;14.124;2023-02-10T11:43:39;98570.44;;;3.51;70.01
49044;BME280;34860;48.066;14.124;2023-02-10T11:46:30;98571.91;;;3.49;69.85
49044;BME280;34860;48.066;14.124;2023-02-10T11:49:18;98582.81;;;3.45;69.77
49044;BME280;34860;48.066;14.124;2023-02-10T11:52:06;98577.31;;;3.45;69.75
49044;BME280;34860;48.066;14.124;2023-02-10T11:54:56;98570.63;;;3.46;69.71
49044;BME280;34860;48.066;14.124;2023-02-10T11:57:49;98569.63;;;3.51;69.70
49044;BME280;34860;48.066;14.124;2023-02-10T12:01:04;98554.28;;;3.50;69.40
49044;BME280;34860;48.066;14.124;2023-02-10T12:04:00;98555.41;;;3.49;69.43
49044;BME280;34860;48.066;14.124;2023-02-10T12:06:55;98559.44;;;3.51;69.66
49044;BME280;34860;48.066;14.124;2023-02-10T12:09:49;98550.50;;;3.54;69.38
49044;BME280;34860;48.066;14.124;2023-02-10T12:12:47;98550.28;;;3.59;69.29
49044;BME280;34860;48.066;14.124;2023-02-10T12:15:47;98555.44;;;3.61;69.27
49044;BME280;34860;48.066;14.124;2023-02-10T12:18:47;98543.75;;;3.64;69.33
49044;BME280;34860;48.066;14.124;2023-02-10T12:22:00;98540.66;;;3.66;69.35
49044;BME280;34860;48.066;14.124;2023-02-10T12:25:00;98547.03;;;3.70;69.29
49044;BME280;34860;48.066;14.124;2023-02-10T12:27:59;98534.66;;;3.76;69.33
49044;BME280;34860;48.066;14.124;2023-02-10T12:30:55;98536.03;;;3.82;69.29
49044;BME280;34860;48.066;14.124;2023-02-10T12:34:11;98529.06;;;3.85;69.31
49044;BME280;34860;48.066;14.124;2023-02-10T12:37:13;98536.25;;;3.89;69.33
49044;BME280;34860;48.066;14.124;2023-02-10T12:40:21;98526.63;;;3.95;69.39
49044;BME280;34860;48.066;14.124;2023-02-10T12:43:24;98526.16;;;4.06;69.22
49044;BME280;34860;48.066;14.124;2023-02-10T12:46:21;98521.66;;;4.13;69.20
49044;BME280;34860;48.066;14.124;2023-02-10T12:49:21;98520.63;;;4.18;69.08
49044;BME280;34860;48.066;14.124;2023-02-10T12:52:17;98514.16;;;4.26;68.77
49044;BME280;34860;48.066;14.124;2023-02-10T12:55:14;98523.19;;;4.83;68.78
49044;BME280;34860;48.066;14.124;2023-02-10T12:58:06;98515.81;;;5.67;68.36
49044;BME280;34860;48.066;14.124;2023-02-10T13:01:05;98516.19;;;6.01;67.92
49044;BME280;34860;48.066;14.124;2023-02-10T13:04:03;98518.41;;;6.11;67.63
49044;BME280;34860;48.066;14.124;2023-02-10T13:06:57;98512.22;;;6.18;67.97
49044;BME280;34860;48.066;14.124;2023-02-10T13:09:52;98515.63;;;6.31;68.45
49044;BME280;34860;48.066;14.124;2023-02-10T13:12:45;98505.25;;;6.24;68.51
49044;BME280;34860;48.066;14.124;2023-02-10T13:15:37;98510.31;;;6.03;68.63
49044;BME280;34860;48.066;14.124;2023-02-10T13:18:29;98505.41;;;5.96;69.20
49044;BME280;34860;48.066;14.124;2023-02-10T13:21:22;98497.75;;;6.05;69.34
49044;BME280;34860;48.066;14.124;2023-02-10T13:24:17;98503.88;;;6.34;69.26
49044;BME280;34860;48.066;14.124;2023-02-10T13:27:17;98496.44;;;6.58;68.90
49044;BME280;34860;48.066;14.124;2023-02-10T13:33:29;98505.81;;;7.19;69.15
49044;BME280;34860;48.066;14.124;2023-02-10T13:36:22;98503.81;;;6.93;69.23
49044;BME280;34860;48.066;14.124;2023-02-10T13:39:17;98509.13;;;6.82;69.91
49044;BME280;34860;48.066;14.124;2023-02-10T13:42:09;98516.53;;;6.78;70.11
49044;BME280;34860;48.066;14.124;2023-02-10T13:45:05;98516.78;;;6.69;70.34
49044;BME280;34860;48.066;14.124;2023-02-10T13:47:56;98520.66;;;6.64;70.28
49044;BME280;34860;48.066;14.124;2023-02-10T13:50:48;98519.63;;;6.72;70.27
49044;BME280;34860;48.066;14.124;2023-02-10T13:53:41;98517.88;;;7.07;70.35
49044;BME280;34860;48.066;14.124;2023-02-10T13:56:31;98526.91;;;7.27;70.41
49044;BME280;34860;48.066;14.124;2023-02-10T13:59:35;98528.38;;;7.44;70.69
49044;BME280;34860;48.066;14.124;2023-02-10T14:02:23;98528.38;;;7.21;70.72
49044;BME280;34860;48.066;14.124;2023-02-10T14:05:24;98537.34;;;7.14;70.84
49044;BME280;34860;48.066;14.124;2023-02-10T14:08:25;98530.81;;;7.49;70.66
49044;BME280;34860;48.066;14.124;2023-02-10T14:11:28;98529.50;;;7.93;70.34
49044;BME280;34860;48.066;14.124;2023-02-10T14:14:20;98526.44;;;7.98;70.44
49044;BME280;34860;48.066;14.124;2023-02-10T14:17:20;98527.09;;;8.18;70.64
49044;BME280;34860;48.066;14.124;2023-02-10T14:20:16;98513.78;;;8.31;70.52
49044;BME280;34860;48.066;14.124;2023-02-10T14:23:06;98520.94;;;8.32;70.58
49044;BME280;34860;48.066;14.124;2023-02-10T14:25:57;98515.06;;;8.07;70.81
49044;BME280;34860;48.066;14.124;2023-02-10T14:28:48;98514.50;;;7.94;71.29
49044;BME280;34860;48.066;14.124;2023-02-10T14:31:42;98513.88;;;7.77;71.44
49044;BME280;34860;48.066;14.124;2023-02-10T14:34:34;98515.75;;;7.46;71.57
49044;BME280;34860;48.066;14.124;2023-02-10T14:37:22;98516.81;;;6.92;71.59
49044;BME280;34860;48.066;14.124;2023-02-10T14:40:16;98515.56;;;6.47;71.93
49044;BME280;34860;48.066;14.124;2023-02-10T14:43:12;98515.19;;;6.09;71.93
49044;BME280;34860;48.066;14.124;2023-02-10T14:46:00;98511.19;;;5.71;71.88
49044;BME280;34860;48.066;14.124;2023-02-10T14:48:56;98510.88;;;5.41;71.86
49044;BME280;34860;48.066;14.124;2023-02-10T14:51:46;98519.66;;;5.15;71.81
49044;BME280;34860;48.066;14.124;2023-02-10T14:54:38;98523.03;;;4.92;71.69
49044;BME280;34860;48.066;14.124;2023-02-10T14:57:28;98517.50;;;4.76;71.47
49044;BME280;34860;48.066;14.124;2023-02-10T15:00:19;98520.66;;;4.62;71.33
49044;BME280;34860;48.066;14.124;2023-02-10T15:03:11;98521.88;;;4.49;71.14
49044;BME280;34860;48.066;14.124;2023-02-10T15:06:00;98519.50;;;4.35;71.06
49044;BME280;34860;48.066;14.124;2023-02-10T15:08:51;98516.91;;;4.26;70.88